Time;durP1;ratioP1;P1;durP2;ratioP2;P2;SDS_P1;SDS_P2;PMS_P1;PMS_P2;Temp;Humidity;BMP_temperature;BMP_pressure;BME280_temperature;BME280_humidity;BME280_pressure;Samples;Min_cycle;Max_cycle;Signal;HPM_P1;HPM_P2
2023/09/10 00:00:30;;;;;;;0.00;0.00;;;18.70;99.90;;;;;;5051158;28;20490;-69
2023/09/10 00:02:56;;;;;;;0.20;0.10;;;18.70;99.90;;;;;;5051033;28;20185;-68
2023/09/10 00:05:21;;;;;;;0.35;0.35;;;18.60;99.90;;;;;;5051038;28;20278;-70
2023/09/10 00:07:47;;;;;;;0.00;0.00;;;18.60;99.90;;;;;;5051210;28;20191;-69
2023/09/10 00:10:13;;;;;;;0.10;0.10;;;18.60;99.90;;;;;;5051069;28;20637;-69
2023/09/10 00:12:40;;;;;;;0.00;0.00;;;18.60;99.90;;;;;;5051825;28;20663;-69
2023/09/10 00:15:06;;;;;;;0.00;0.00;;;18.60;99.90;;;;;;5055078;28;20239;-69
2023/09/10 00:17:32;;;;;;;0.00;0.00;;;18.50;99.90;;;;;;5055198;28;20231;-69
2023/09/10 00:19:57;;;;;;;0.00;0.00;;;18.50;99.90;;;;;;5054778;28;20181;-69
2023/09/10 00:22:23;;;;;;;0.00;0.00;;;18.50;99.90;;;;;;5054843;28;20304;-69
2023/09/10 00:24:48;;;;;;;0.00;0.00;;;18.50;99.90;;;;;;5053685;28;20197;-70
2023/09/10 00:27:14;;;;;;;0.10;0.10;;;18.50;99.90;;;;;;5054673;28;20193;-69
2023/09/10 00:29:40;;;;;;;0.00;0.00;;;18.40;99.90;;;;;;5054786;28;20173;-69
2023/09/10 00:32:06;;;;;;;0.00;0.00;;;18.40;99.90;;;;;;5054523;28;20225;-69
2023/09/10 00:34:32;;;;;;;0.00;0.00;;;18.30;99.90;;;;;;5054470;28;20323;-69
2023/09/10 00:36:58;;;;;;;0.00;0.00;;;18.30;99.90;;;;;;5054269;28;20173;-69
2023/09/10 00:39:24;;;;;;;0.00;0.00;;;18.20;99.90;;;;;;5054408;28;20181;-69
2023/09/10 00:41:53;;;;;;;0.00;0.00;;;18.20;99.90;;;;;;5054690;28;20680;-69
2023/09/10 00:44:23;;;;;;;0.00;0.00;;;18.20;99.90;;;;;;5054696;28;20185;-69
2023/09/10 00:46:50;;;;;;;0.20;0.10;;;18.10;99.90;;;;;;5054735;28;20235;-69
2023/09/10 00:49:16;;;;;;;0.00;0.00;;;18.10;99.90;;;;;;5054567;28;20177;-69
2023/09/10 00:51:43;;;;;;;0.00;0.00;;;18.10;99.90;;;;;;5054654;28;20166;-69
2023/09/10 00:54:09;;;;;;;0.00;0.00;;;18.10;99.90;;;;;;5054500;28;20632;-69
2023/09/10 00:56:35;;;;;;;0.08;0.08;;;18.10;99.90;;;;;;5054321;28;20188;-69
2023/09/10 00:59:01;;;;;;;0.00;0.00;;;18.10;99.90;;;;;;5054353;28;20178;-69
2023/09/10 01:01:27;;;;;;;0.00;0.00;;;18.00;99.90;;;;;;5054400;28;20217;-69
2023/09/10 01:03:53;;;;;;;0.00;0.00;;;18.00;99.90;;;;;;5055503;28;20228;-69
2023/09/10 01:06:21;;;;;;;0.10;0.10;;;18.00;99.90;;;;;;5054288;28;20672;-69
2023/09/10 01:08:47;;;;;;;0.00;0.00;;;18.00;99.90;;;;;;5054380;28;20178;-69
2023/09/10 01:11:24;;;;;;;0.00;0.00;;;18.00;99.90;;;;;;5053784;28;20672;-69
2023/09/10 01:14:17;;;;;;;0.00;0.00;;;17.90;99.90;;;;;;5048693;28;20185;-69
2023/09/10 01:17:09;;;;;;;0.00;0.00;;;18.00;99.90;;;;;;5053899;28;20178;-69
2023/09/10 01:19:43;;;;;;;0.32;0.32;;;17.90;99.90;;;;;;5053545;28;20251;-70
2023/09/10 01:22:30;;;;;;;0.00;0.00;;;17.90;99.90;;;;;;5053857;28;20593;-70
2023/09/10 01:24:57;;;;;;;0.00;0.00;;;17.90;99.90;;;;;;5053085;28;20536;-69
2023/09/10 01:27:23;;;;;;;0.30;0.30;;;17.90;99.90;;;;;;5053576;28;20261;-70
2023/09/10 01:29:48;;;;;;;0.00;0.00;;;17.80;99.90;;;;;;5053654;28;20267;-69
2023/09/10 01:32:29;;;;;;;0.00;0.00;;;17.80;99.90;;;;;;5053450;28;20680;-69
2023/09/10 01:35:20;;;;;;;0.00;0.00;;;17.70;99.90;;;;;;5053298;28;20241;-69
2023/09/10 01:38:01;;;;;;;0.00;0.00;;;17.70;99.90;;;;;;5052470;28;20246;-69
2023/09/10 01:40:44;;;;;;;0.00;0.00;;;17.70;99.90;;;;;;5053588;28;20530;-68
2023/09/10 01:43:10;;;;;;;0.00;0.00;;;17.60;99.90;;;;;;5053450;28;20193;-68
2023/09/10 01:45:36;;;;;;;0.03;0.03;;;17.50;99.90;;;;;;5053242;28;20180;-68
2023/09/10 01:48:02;;;;;;;0.10;0.10;;;17.50;99.90;;;;;;5053199;28;20177;-68
2023/09/10 01:50:29;;;;;;;0.00;0.00;;;17.50;99.90;;;;;;5052843;28;20173;-69
2023/09/10 01:52:58;;;;;;;0.00;0.00;;;17.50;99.90;;;;;;5053174;28;20284;-69
2023/09/10 01:55:24;;;;;;;0.00;0.00;;;17.50;99.90;;;;;;5053031;28;20178;-69
2023/09/10 01:57:49;;;;;;;0.17;0.00;;;17.50;99.90;;;;;;5051772;28;20182;-68
2023/09/10 02:00:15;;;;;;;0.00;0.00;;;17.50;99.90;;;;;;5051484;28;20592;-68
2023/09/10 02:02:40;;;;;;;0.00;0.00;;;17.40;99.90;;;;;;5052738;28;20217;-69
2023/09/10 02:05:06;;;;;;;0.00;0.00;;;17.40;99.90;;;;;;5051524;28;20204;-69
2023/09/10 02:07:32;;;;;;;0.00;0.00;;;17.40;99.90;;;;;;5052876;28;20220;-69
2023/09/10 02:09:58;;;;;;;0.30;0.30;;;17.40;99.90;;;;;;5052716;28;20192;-69
2023/09/10 02:12:24;;;;;;;0.00;0.00;;;17.40;99.90;;;;;;5052866;28;20178;-69
2023/09/10 02:14:50;;;;;;;0.03;0.03;;;17.40;99.90;;;;;;5052927;28;20185;-69
2023/09/10 02:17:16;;;;;;;0.00;0.00;;;17.40;99.90;;;;;;5052770;28;20648;-69
2023/09/10 02:19:41;;;;;;;0.13;0.13;;;17.40;99.90;;;;;;5052630;28;20185;-69
2023/09/10 02:22:07;;;;;;;0.00;0.00;;;17.40;99.90;;;;;;5052452;28;20236;-69
2023/09/10 02:24:32;;;;;;;0.15;0.15;;;17.30;99.90;;;;;;5051435;28;20657;-70
2023/09/10 02:26:58;;;;;;;0.98;0.05;;;17.30;99.90;;;;;;5052504;28;20181;-69
2023/09/10 02:29:23;;;;;;;0.00;0.00;;;17.30;99.90;;;;;;5052704;28;20182;-69
2023/09/10 02:31:49;;;;;;;0.00;0.00;;;17.20;99.90;;;;;;5052490;28;20229;-69
2023/09/10 02:34:14;;;;;;;0.05;0.05;;;17.20;99.90;;;;;;5052435;28;20174;-69
2023/09/10 02:36:40;;;;;;;0.00;0.00;;;17.20;99.90;;;;;;5051707;28;20543;-69
2023/09/10 02:39:05;;;;;;;0.00;0.00;;;17.10;99.90;;;;;;5051963;28;20209;-69
2023/09/10 02:41:31;;;;;;;0.00;0.00;;;17.10;99.90;;;;;;5051947;28;20288;-69
2023/09/10 02:43:56;;;;;;;0.00;0.00;;;17.10;99.90;;;;;;5051926;28;20212;-69
2023/09/10 02:46:23;;;;;;;0.00;0.00;;;17.10;99.90;;;;;;5051944;28;20204;-70
2023/09/10 02:48:49;;;;;;;0.08;0.08;;;17.00;99.90;;;;;;5052260;28;20223;-69
2023/09/10 02:51:14;;;;;;;0.00;0.00;;;17.00;99.90;;;;;;5051757;28;20637;-70
2023/09/10 02:53:40;;;;;;;0.00;0.00;;;17.00;99.90;;;;;;5051770;28;20193;-69
2023/09/10 02:56:05;;;;;;;0.05;0.05;;;16.90;99.90;;;;;;5051747;28;20185;-69
2023/09/10 02:58:32;;;;;;;0.00;0.00;;;16.90;99.90;;;;;;5051676;28;20243;-69
2023/09/10 03:01:03;;;;;;;0.00;0.00;;;16.90;99.90;;;;;;5051349;28;20213;-68
2023/09/10 03:03:29;;;;;;;0.00;0.00;;;16.90;99.90;;;;;;5051540;28;20181;-69
2023/09/10 03:05:54;;;;;;;0.10;0.10;;;16.90;99.90;;;;;;5050180;28;20581;-68
2023/09/10 03:08:20;;;;;;;0.10;0.10;;;16.80;99.90;;;;;;5051425;28;20174;-69
2023/09/10 03:10:45;;;;;;;0.00;0.00;;;16.80;99.90;;;;;;5051712;28;20180;-69
2023/09/10 03:13:11;;;;;;;0.03;0.03;;;16.80;99.90;;;;;;5051281;28;20187;-69
2023/09/10 03:15:36;;;;;;;0.00;0.00;;;16.80;99.90;;;;;;5051455;28;20590;-69
2023/09/10 03:18:02;;;;;;;0.00;0.00;;;16.80;99.90;;;;;;5051590;28;20252;-69
2023/09/10 03:20:27;;;;;;;0.00;0.00;;;16.70;99.90;;;;;;5051432;28;20629;-69
2023/09/10 03:22:58;;;;;;;0.00;0.00;;;16.70;99.90;;;;;;5051675;28;20585;-69
2023/09/10 03:25:24;;;;;;;0.03;0.03;;;16.70;99.90;;;;;;5051661;28;20196;-69
2023/09/10 03:27:49;;;;;;;0.10;0.10;;;16.70;99.90;;;;;;5051560;28;20632;-69
2023/09/10 03:30:16;;;;;;;0.00;0.00;;;16.70;99.90;;;;;;5051240;28;20533;-69
2023/09/10 03:32:42;;;;;;;0.00;0.00;;;16.70;99.90;;;;;;5051247;28;20217;-69
2023/09/10 03:35:10;;;;;;;0.00;0.00;;;16.70;99.90;;;;;;5051310;28;20185;-69
2023/09/10 03:37:36;;;;;;;0.00;0.00;;;16.70;99.90;;;;;;5051224;28;20258;-69
2023/09/10 03:40:04;;;;;;;0.00;0.00;;;16.70;99.90;;;;;;5051443;28;20656;-69
2023/09/10 03:42:29;;;;;;;0.00;0.00;;;16.70;99.90;;;;;;5051081;28;20236;-69
2023/09/10 03:44:55;;;;;;;0.00;0.00;;;16.60;99.90;;;;;;5051117;28;20656;-69
2023/09/10 03:47:21;;;;;;;0.00;0.00;;;16.70;99.90;;;;;;5051142;28;20181;-69
2023/09/10 03:49:46;;;;;;;0.00;0.00;;;16.70;99.90;;;;;;5055335;28;20231;-69
2023/09/10 03:52:16;;;;;;;0.00;0.00;;;16.60;99.90;;;;;;5055210;28;20188;-69
2023/09/10 03:54:42;;;;;;;0.00;0.00;;;16.60;99.90;;;;;;5055327;28;20189;-69
2023/09/10 03:57:07;;;;;;;0.10;0.10;;;16.60;99.90;;;;;;5055478;28;20226;-69
2023/09/10 03:59:33;;;;;;;0.00;0.00;;;16.50;99.90;;;;;;5055508;28;20169;-69
2023/09/10 04:01:59;;;;;;;0.03;0.03;;;16.50;99.90;;;;;;5053866;28;20572;-69
2023/09/10 04:04:25;;;;;;;0.22;0.22;;;16.50;99.90;;;;;;5053735;28;20688;-69
2023/09/10 04:06:50;;;;;;;0.00;0.00;;;16.60;99.90;;;;;;5054892;28;20192;-69
2023/09/10 04:09:16;;;;;;;0.00;0.00;;;16.60;99.90;;;;;;5054945;28;20178;-69
2023/09/10 04:11:42;;;;;;;0.00;0.00;;;16.60;99.90;;;;;;5053582;28;20177;-69
2023/09/10 04:14:07;;;;;;;0.00;0.00;;;16.50;99.90;;;;;;5054912;28;20182;-69
2023/09/10 04:16:33;;;;;;;0.00;0.00;;;16.50;99.90;;;;;;5055017;28;20185;-69
2023/09/10 04:18:58;;;;;;;0.55;0.35;;;16.40;99.90;;;;;;5054481;28;20178;-69
2023/09/10 04:21:24;;;;;;;0.00;0.00;;;16.40;99.90;;;;;;5061045;28;20554;-69
2023/09/10 04:23:49;;;;;;;0.00;0.00;;;16.40;99.90;;;;;;5074836;28;20234;-69
2023/09/10 04:26:16;;;;;;;0.00;0.00;;;16.30;99.90;;;;;;5068949;28;20653;-69
2023/09/10 04:28:41;;;;;;;0.00;0.00;;;16.30;99.90;;;;;;5054835;28;20173;-69
2023/09/10 04:31:16;;;;;;;0.00;0.00;;;16.20;99.90;;;;;;5054457;28;20228;-69
2023/09/10 04:33:42;;;;;;;0.00;0.00;;;16.20;99.90;;;;;;5054697;28;20264;-69
2023/09/10 04:36:08;;;;;;;0.10;0.10;;;16.10;99.90;;;;;;5054666;28;20321;-69
2023/09/10 04:38:33;;;;;;;0.00;0.00;;;16.10;99.90;;;;;;5061449;28;20175;-69
2023/09/10 04:40:59;;;;;;;0.00;0.00;;;16.10;99.90;;;;;;5074331;28;20172;-69
2023/09/10 04:43:25;;;;;;;0.00;0.00;;;16.10;99.90;;;;;;5074484;28;20239;-69
2023/09/10 04:45:50;;;;;;;0.00;0.00;;;16.00;99.90;;;;;;5074459;28;20517;-69
2023/09/10 04:48:17;;;;;;;0.00;0.00;;;16.00;99.90;;;;;;5074342;28;20663;-69
2023/09/10 04:50:43;;;;;;;0.00;0.00;;;16.00;99.90;;;;;;5062623;28;20201;-69
2023/09/10 04:53:09;;;;;;;0.10;0.10;;;16.00;99.90;;;;;;5054188;28;20190;-69
2023/09/10 04:55:35;;;;;;;0.00;0.00;;;16.00;99.90;;;;;;5054449;28;20173;-69
2023/09/10 04:58:00;;;;;;;0.00;0.00;;;16.00;99.90;;;;;;5053988;28;20177;-69
2023/09/10 05:00:26;;;;;;;0.05;0.05;;;16.10;99.90;;;;;;5052940;28;20537;-69
2023/09/10 05:02:52;;;;;;;0.00;0.00;;;16.10;99.90;;;;;;5053936;28;20302;-69
2023/09/10 05:05:17;;;;;;;0.00;0.00;;;16.10;99.90;;;;;;5053501;28;20181;-69
2023/09/10 05:07:43;;;;;;;0.00;0.00;;;16.10;99.90;;;;;;5053793;28;20311;-70
2023/09/10 05:10:10;;;;;;;0.00;0.00;;;16.10;99.90;;;;;;5053954;28;20707;-69
2023/09/10 05:12:35;;;;;;;0.00;0.00;;;16.10;99.90;;;;;;5053875;28;20189;-70
2023/09/10 05:15:01;;;;;;;0.00;0.00;;;16.10;99.90;;;;;;5053877;28;20185;-70
2023/09/10 05:17:26;;;;;;;0.00;0.00;;;16.10;99.90;;;;;;5053581;28;20181;-69
2023/09/10 05:19:52;;;;;;;0.00;0.00;;;16.10;99.90;;;;;;5052361;28;20177;-69
2023/09/10 05:22:17;;;;;;;0.00;0.00;;;16.20;99.90;;;;;;5052938;28;20212;-69
2023/09/10 05:24:43;;;;;;;0.00;0.00;;;16.20;99.90;;;;;;5053197;28;20699;-69
2023/09/10 05:27:08;;;;;;;0.00;0.00;;;16.20;99.90;;;;;;5051863;28;20672;-69
2023/09/10 05:29:34;;;;;;;0.10;0.10;;;16.20;99.90;;;;;;5053238;28;20223;-70
2023/09/10 05:31:59;;;;;;;0.00;0.00;;;16.30;99.90;;;;;;5053173;28;20225;-69
2023/09/10 05:34:25;;;;;;;0.00;0.00;;;16.40;99.90;;;;;;5053541;28;20197;-69
2023/09/10 05:36:51;;;;;;;0.10;0.10;;;16.40;99.90;;;;;;5053048;28;20659;-69
2023/09/10 05:39:17;;;;;;;0.00;0.00;;;16.40;99.90;;;;;;5053220;28;20181;-69
2023/09/10 05:41:42;;;;;;;0.00;0.00;;;16.50;99.90;;;;;;5053059;28;20221;-69
2023/09/10 05:44:08;;;;;;;0.00;0.00;;;16.50;99.90;;;;;;5052883;28;20193;-69
2023/09/10 05:46:34;;;;;;;0.00;0.00;;;16.60;99.90;;;;;;5052794;28;20201;-70
2023/09/10 05:48:59;;;;;;;0.10;0.10;;;16.60;99.90;;;;;;5051368;28;20173;-70
2023/09/10 05:51:25;;;;;;;0.00;0.00;;;16.70;99.90;;;;;;5052750;28;20178;-69
2023/09/10 05:53:50;;;;;;;0.00;0.00;;;16.70;99.90;;;;;;5052615;28;20239;-70
2023/09/10 05:56:16;;;;;;;0.10;0.10;;;16.80;99.90;;;;;;5052972;28;20174;-70
2023/09/10 05:58:42;;;;;;;0.13;0.13;;;16.80;99.90;;;;;;5052746;28;20194;-69
2023/09/10 06:01:08;;;;;;;0.28;0.28;;;16.90;99.90;;;;;;5052121;28;20284;-70
2023/09/10 06:03:33;;;;;;;0.00;0.00;;;17.00;99.90;;;;;;5051271;28;20213;-70
2023/09/10 06:06:01;;;;;;;0.00;0.00;;;17.20;99.90;;;;;;5052391;28;20192;-70
2023/09/10 06:08:27;;;;;;;0.00;0.00;;;17.50;99.90;;;;;;5052528;28;20536;-69
2023/09/10 06:10:53;;;;;;;0.00;0.00;;;17.90;99.90;;;;;;5052707;28;20220;-70
2023/09/10 06:13:18;;;;;;;0.10;0.10;;;18.30;99.90;;;;;;5052207;28;20178;-69
2023/09/10 06:15:44;;;;;;;0.00;0.00;;;18.80;99.90;;;;;;5052397;28;20517;-69
2023/09/10 06:18:09;;;;;;;0.05;0.05;;;19.30;99.90;;;;;;5052213;28;20200;-70
2023/09/10 06:20:35;;;;;;;0.00;0.00;;;19.80;99.90;;;;;;5052260;28;20182;-69
2023/09/10 06:23:00;;;;;;;0.00;0.00;;;20.30;99.90;;;;;;5051280;28;20209;-69
2023/09/10 06:25:26;;;;;;;0.00;0.00;;;20.90;99.90;;;;;;5052523;28;20584;-70
2023/09/10 06:27:52;;;;;;;0.00;0.00;;;21.40;99.90;;;;;;5052562;28;20201;-70
2023/09/10 06:30:17;;;;;;;0.20;0.20;;;21.80;99.90;;;;;;5053031;28;20177;-69
2023/09/10 06:32:43;;;;;;;0.08;0.08;;;22.30;99.90;;;;;;5052219;28;20185;-71
2023/09/10 06:35:08;;;;;;;0.00;0.00;;;22.70;99.90;;;;;;5051567;28;20178;-74
2023/09/10 06:37:34;;;;;;;0.60;0.30;;;23.10;99.90;;;;;;5051810;28;20174;-75
2023/09/10 06:40:00;;;;;;;0.00;0.00;;;23.50;99.90;;;;;;5050737;28;20256;-74
2023/09/10 06:42:26;;;;;;;0.00;0.00;;;23.90;99.90;;;;;;5052047;28;20304;-73
2023/09/10 06:44:51;;;;;;;0.00;0.00;;;24.30;99.90;;;;;;5051684;28;20225;-73
2023/09/10 06:47:17;;;;;;;0.00;0.00;;;24.60;99.90;;;;;;5051779;28;20180;-72
2023/09/10 06:49:42;;;;;;;0.00;0.00;;;25.00;99.90;;;;;;5051667;28;20706;-73
2023/09/10 06:52:08;;;;;;;0.00;0.00;;;25.40;99.90;;;;;;5050811;28;20181;-74
2023/09/10 06:54:34;;;;;;;0.10;0.10;;;25.80;99.90;;;;;;5051306;28;20182;-71
2023/09/10 06:57:00;;;;;;;0.00;0.00;;;26.20;99.10;;;;;;5051343;28;20212;-72
2023/09/10 06:59:28;;;;;;;0.28;0.28;;;26.50;98.50;;;;;;5052056;28;20578;-71
2023/09/10 07:01:53;;;;;;;0.00;0.00;;;26.70;97.80;;;;;;5051671;28;20209;-71
2023/09/10 07:04:21;;;;;;;0.00;0.00;;;26.90;97.40;;;;;;5051775;28;20189;-72
2023/09/10 07:06:49;;;;;;;0.00;0.00;;;27.20;97.10;;;;;;5051993;28;20188;-72
2023/09/10 07:09:22;;;;;;;0.03;0.03;;;27.40;96.60;;;;;;5051820;28;20181;-72
2023/09/10 07:11:52;;;;;;;0.22;0.22;;;27.70;96.20;;;;;;5052052;28;20174;-74
2023/09/10 07:14:19;;;;;;;0.00;0.00;;;27.90;95.70;;;;;;5051819;28;20185;-73
2023/09/10 07:16:45;;;;;;;0.00;0.00;;;28.20;95.20;;;;;;5051735;28;20220;-72
2023/09/10 07:19:11;;;;;;;0.00;0.00;;;28.60;94.60;;;;;;5051745;28;20170;-73
2023/09/10 07:21:37;;;;;;;0.00;0.00;;;28.90;94.10;;;;;;5051436;28;20227;-72
2023/09/10 07:24:06;;;;;;;0.10;0.10;;;29.10;93.10;;;;;;5051034;28;20174;-73
2023/09/10 07:26:32;;;;;;;0.00;0.00;;;29.40;92.90;;;;;;5051346;28;20652;-72
2023/09/10 07:28:58;;;;;;;0.00;0.00;;;29.70;92.40;;;;;;5051412;28;20181;-71
2023/09/10 07:31:23;;;;;;;0.03;0.03;;;30.00;91.60;;;;;;5051264;28;20343;-72
2023/09/10 07:33:49;;;;;;;0.10;0.10;;;30.20;91.40;;;;;;5050357;28;20659;-73
2023/09/10 07:36:14;;;;;;;0.03;0.03;;;30.60;90.80;;;;;;5051218;28;20185;-72
2023/09/10 07:38:40;;;;;;;0.00;0.00;;;30.90;90.20;;;;;;5052720;28;20231;-73
2023/09/10 07:41:05;;;;;;;0.03;0.00;;;31.20;89.10;;;;;;5051378;28;20180;-72
2023/09/10 07:43:31;;;;;;;0.00;0.00;;;31.40;88.00;;;;;;5068929;28;20198;-72
2023/09/10 07:45:56;;;;;;;0.00;0.00;;;31.60;87.00;;;;;;5069983;28;20184;-72
2023/09/10 07:48:22;;;;;;;0.00;0.00;;;31.60;85.30;;;;;;5055101;28;20184;-72
2023/09/10 07:50:57;;;;;;;0.00;0.00;;;31.80;85.00;;;;;;5050073;28;20189;-73
2023/09/10 07:53:24;;;;;;;0.00;0.00;;;32.10;84.10;;;;;;5050806;28;20172;-73
2023/09/10 07:55:49;;;;;;;0.00;0.00;;;32.30;83.50;;;;;;5051077;28;20223;-73
2023/09/10 07:58:15;;;;;;;0.00;0.00;;;32.50;82.50;;;;;;5050433;28;20176;-72
2023/09/10 08:00:41;;;;;;;0.00;0.00;;;32.70;81.50;;;;;;5050611;28;20192;-73
2023/09/10 08:03:07;;;;;;;0.32;0.13;;;32.90;80.60;;;;;;5051944;28;20205;-73
2023/09/10 08:05:36;;;;;;;0.00;0.00;;;33.00;78.30;;;;;;5051062;28;20178;-73
2023/09/10 08:08:04;;;;;;;0.00;0.00;;;33.30;76.90;;;;;;5050696;28;20204;-71
2023/09/10 08:10:30;;;;;;;0.00;0.00;;;33.50;76.70;;;;;;5050557;28;20188;-71
2023/09/10 08:12:57;;;;;;;0.00;0.00;;;33.70;74.10;;;;;;5050712;28;20203;-72
2023/09/10 08:15:22;;;;;;;0.00;0.00;;;33.90;72.20;;;;;;5050957;28;20173;-73
2023/09/10 08:17:51;;;;;;;0.00;0.00;;;33.80;72.40;;;;;;5050832;28;20326;-73
2023/09/10 08:20:16;;;;;;;0.00;0.00;;;33.90;71.70;;;;;;5050816;28;20161;-72
2023/09/10 08:22:43;;;;;;;0.00;0.00;;;34.00;71.70;;;;;;5049778;28;20219;-73
2023/09/10 08:25:09;;;;;;;0.00;0.00;;;34.00;70.50;;;;;;5051050;28;20699;-74
2023/09/10 08:27:37;;;;;;;0.00;0.00;;;34.00;71.80;;;;;;5050972;28;20251;-74
2023/09/10 08:30:05;;;;;;;0.00;0.00;;;34.10;72.90;;;;;;5051079;28;20272;-73
2023/09/10 08:32:31;;;;;;;0.05;0.00;;;34.20;71.30;;;;;;5050994;28;20217;-73
2023/09/10 08:34:57;;;;;;;0.00;0.00;;;34.30;70.00;;;;;;5053267;28;20604;-72
2023/09/10 08:37:22;;;;;;;0.00;0.00;;;34.40;69.40;;;;;;5054426;28;20181;-74
2023/09/10 08:39:48;;;;;;;0.10;0.10;;;34.50;69.60;;;;;;5054288;28;20200;-74
2023/09/10 08:42:42;;;;;;;0.00;0.00;;;34.50;67.80;;;;;;5054148;28;20304;-75
2023/09/10 08:45:11;;;;;;;0.00;0.00;;;34.60;67.40;;;;;;5054499;28;20169;-72
2023/09/10 08:47:41;;;;;;;0.00;0.00;;;34.70;66.70;;;;;;5034662;28;20315;-70
2023/09/10 08:50:12;;;;;;;0.00;0.00;;;34.70;66.80;;;;;;5049499;28;20173;-70
2023/09/10 08:52:45;;;;;;;0.00;0.00;;;34.70;68.00;;;;;;5053892;28;20188;-71
2023/09/10 08:55:12;;;;;;;0.00;0.00;;;34.70;68.10;;;;;;5054410;28;20251;-71
2023/09/10 08:57:39;;;;;;;0.25;0.25;;;34.60;68.60;;;;;;5054377;28;20175;-71
2023/09/10 09:00:10;;;;;;;0.10;0.10;;;34.60;68.30;;;;;;5055587;28;20552;-71
2023/09/10 09:02:37;;;;;;;0.20;0.00;;;34.50;67.30;;;;;;5072039;28;20220;-71
2023/09/10 09:05:02;;;;;;;0.00;0.00;;;34.60;66.50;;;;;;5074318;28;20172;-71
2023/09/10 09:07:34;;;;;;;0.00;0.00;;;34.70;67.40;;;;;;5074402;28;20263;-71
2023/09/10 09:10:02;;;;;;;0.00;0.00;;;34.70;67.50;;;;;;5064475;28;20250;-72
2023/09/10 09:12:30;;;;;;;0.00;0.00;;;34.80;67.40;;;;;;5053692;28;20231;-71
2023/09/10 09:14:57;;;;;;;1.05;0.73;;;34.80;67.30;;;;;;5053991;28;20533;-71
2023/09/10 09:17:22;;;;;;;0.00;0.00;;;34.90;66.60;;;;;;5053704;28;20185;-71
2023/09/10 09:19:50;;;;;;;0.20;0.20;;;35.10;65.80;;;;;;5053958;28;20177;-72
2023/09/10 09:22:19;;;;;;;0.00;0.00;;;35.20;63.20;;;;;;5053368;28;20224;-72
2023/09/10 09:24:45;;;;;;;0.03;0.03;;;35.30;62.90;;;;;;5053601;28;20188;-71
2023/09/10 09:27:12;;;;;;;0.08;0.05;;;35.00;63.60;;;;;;5053708;28;20532;-72
2023/09/10 09:29:38;;;;;;;0.00;0.00;;;34.90;63.40;;;;;;5053768;28;20517;-71
2023/09/10 09:32:04;;;;;;;0.10;0.10;;;34.80;64.00;;;;;;5053057;28;20220;-71
2023/09/10 09:34:31;;;;;;;0.13;0.13;;;34.80;65.10;;;;;;5053864;28;20173;-71
2023/09/10 09:36:57;;;;;;;0.30;0.10;;;34.70;64.70;;;;;;5053389;28;20252;-71
2023/09/10 09:39:22;;;;;;;0.00;0.00;;;34.70;63.80;;;;;;5051885;28;20189;-69
2023/09/10 09:41:52;;;;;;;0.00;0.00;;;34.70;65.10;;;;;;5053209;28;20308;-71
2023/09/10 09:44:18;;;;;;;0.00;0.00;;;34.70;64.50;;;;;;5053048;28;20259;-63
2023/09/10 09:46:45;;;;;;;0.00;0.00;;;34.70;64.10;;;;;;5052125;28;20184;-66
2023/09/10 09:49:11;;;;;;;0.00;0.00;;;34.70;62.90;;;;;;5052877;28;20262;-65
2023/09/10 09:51:39;;;;;;;0.13;0.13;;;34.80;63.50;;;;;;5053058;28;20220;-69
2023/09/10 09:54:07;;;;;;;0.10;0.10;;;34.80;62.10;;;;;;5052830;28;20185;-66
2023/09/10 09:56:32;;;;;;;0.00;0.00;;;34.90;62.20;;;;;;5051688;28;20180;-64
2023/09/10 09:58:58;;;;;;;0.20;0.20;;;34.90;61.00;;;;;;5052724;28;20651;-66
2023/09/10 10:01:24;;;;;;;0.45;0.05;;;34.80;61.70;;;;;;5051865;28;20208;-65
2023/09/10 10:03:50;;;;;;;0.10;0.10;;;34.70;61.10;;;;;;5052826;28;20181;-65
2023/09/10 10:06:17;;;;;;;0.00;0.00;;;34.50;63.00;;;;;;5052425;28;20177;-65
2023/09/10 10:08:50;;;;;;;0.00;0.00;;;34.50;61.30;;;;;;5052732;28;20993;-64
2023/09/10 10:11:27;;;;;;;0.00;0.00;;;34.60;61.90;;;;;;5052386;28;20180;-65
2023/09/10 10:13:53;;;;;;;0.10;0.10;;;34.80;60.50;;;;;;5052166;28;20223;-65
2023/09/10 10:16:19;;;;;;;0.10;0.10;;;34.70;59.50;;;;;;5052393;28;20196;-63
2023/09/10 10:18:45;;;;;;;0.00;0.00;;;34.80;60.70;;;;;;5050553;28;20263;-64
2023/09/10 10:21:12;;;;;;;0.10;0.10;;;34.80;60.70;;;;;;5052068;28;20181;-64
2023/09/10 10:23:38;;;;;;;0.13;0.13;;;34.80;59.70;;;;;;5052486;28;20597;-63
2023/09/10 10:26:06;;;;;;;0.00;0.00;;;34.70;59.30;;;;;;5052313;28;20185;-63
2023/09/10 10:28:33;;;;;;;0.28;0.28;;;34.70;59.20;;;;;;5052306;28;20580;-64
2023/09/10 10:31:15;;;;;;;0.00;0.00;;;34.70;59.40;;;;;;5051557;28;20296;-64
2023/09/10 10:34:14;;;;;;;0.00;0.00;;;34.80;59.50;;;;;;5052559;28;20185;-63
2023/09/10 10:36:57;;;;;;;0.00;0.00;;;34.80;58.50;;;;;;5051013;28;20227;-64
2023/09/10 10:39:38;;;;;;;0.00;0.00;;;34.80;58.00;;;;;;5052650;28;20632;-64
2023/09/10 10:42:08;;;;;;;0.00;0.00;;;34.80;58.10;;;;;;5052452;28;20208;-64
2023/09/10 10:44:37;;;;;;;0.00;0.00;;;34.70;58.10;;;;;;5052651;28;20251;-63
2023/09/10 10:47:22;;;;;;;0.28;0.15;;;34.60;58.50;;;;;;5052372;28;20711;-64
2023/09/10 10:49:55;;;;;;;0.00;0.00;;;34.40;58.10;;;;;;5051558;28;20667;-63
2023/09/10 10:52:24;;;;;;;0.20;0.20;;;34.30;58.40;;;;;;5052215;28;20235;-63
2023/09/10 10:54:51;;;;;;;0.10;0.10;;;34.40;57.90;;;;;;5052087;28;20169;-64
2023/09/10 10:57:20;;;;;;;0.00;0.00;;;34.30;57.40;;;;;;5050874;28;20177;-63
2023/09/10 10:59:46;;;;;;;0.00;0.00;;;34.20;56.80;;;;;;5051695;28;20213;-63
2023/09/10 11:02:21;;;;;;;0.00;0.00;;;34.20;56.10;;;;;;5050819;28;20248;-63
2023/09/10 11:04:58;;;;;;;0.00;0.00;;;34.20;56.80;;;;;;5052180;28;20242;-64
2023/09/10 11:07:26;;;;;;;0.00;0.00;;;34.30;56.50;;;;;;5051980;28;20173;-62
2023/09/10 11:09:52;;;;;;;0.10;0.10;;;34.20;56.70;;;;;;5051923;28;20188;-64
2023/09/10 11:12:17;;;;;;;0.00;0.00;;;34.20;56.60;;;;;;5051140;28;20189;-64
2023/09/10 11:14:58;;;;;;;0.00;0.00;;;34.20;57.20;;;;;;5051840;28;20222;-63
2023/09/10 11:17:32;;;;;;;0.10;0.00;;;34.20;57.10;;;;;;5051842;28;20181;-64
2023/09/10 11:19:58;;;;;;;0.00;0.00;;;34.30;57.40;;;;;;5051130;28;20602;-64
2023/09/10 11:22:24;;;;;;;0.00;0.00;;;34.40;56.70;;;;;;5051511;28;20204;-65
2023/09/10 11:25:00;;;;;;;0.15;0.05;;;34.50;55.60;;;;;;5051793;28;20172;-64
2023/09/10 11:27:27;;;;;;;0.00;0.00;;;34.60;55.70;;;;;;5051840;28;20173;-65
2023/09/10 11:30:05;;;;;;;0.00;0.00;;;34.70;57.30;;;;;;5051726;28;20177;-64
2023/09/10 11:32:30;;;;;;;0.00;0.00;;;34.80;54.70;;;;;;5051089;28;20285;-64
2023/09/10 11:35:18;;;;;;;0.00;0.00;;;34.80;54.60;;;;;;5049327;28;20186;-64
2023/09/10 11:37:48;;;;;;;0.00;0.00;;;34.80;54.80;;;;;;5049368;28;20699;-65
2023/09/10 11:40:15;;;;;;;0.00;0.00;;;34.90;54.10;;;;;;5045052;28;20297;-65
2023/09/10 11:42:47;;;;;;;0.00;0.00;;;34.90;54.60;;;;;;5031527;28;20205;-65
2023/09/10 11:45:13;;;;;;;0.00;0.00;;;35.00;52.10;;;;;;5049466;28;20255;-65
2023/09/10 11:47:42;;;;;;;0.00;0.00;;;35.10;52.70;;;;;;5048984;28;20556;-65
2023/09/10 11:50:10;;;;;;;0.00;0.00;;;35.30;52.60;;;;;;5050847;28;20256;-66
2023/09/10 11:52:36;;;;;;;0.00;0.00;;;35.40;52.00;;;;;;5052058;28;20683;-65
2023/09/10 11:55:04;;;;;;;0.10;0.10;;;35.30;49.40;;;;;;5050989;28;20192;-65
2023/09/10 11:57:30;;;;;;;0.00;0.00;;;35.20;50.40;;;;;;5051181;28;20181;-65
2023/09/10 11:59:57;;;;;;;0.00;0.00;;;35.10;51.20;;;;;;5050838;28;20585;-66
2023/09/10 12:02:24;;;;;;;0.13;0.13;;;35.10;51.30;;;;;;5049316;28;20695;-65
2023/09/10 12:04:50;;;;;;;0.00;0.00;;;35.10;51.10;;;;;;5050447;28;20169;-65
2023/09/10 12:07:15;;;;;;;0.35;0.10;;;35.10;50.60;;;;;;5050769;28;20173;-65
2023/09/10 12:09:41;;;;;;;0.05;0.05;;;35.00;50.20;;;;;;5052054;28;20580;-65
2023/09/10 12:12:16;;;;;;;0.20;0.20;;;35.00;51.10;;;;;;5054488;28;20231;-66
2023/09/10 12:14:42;;;;;;;0.10;0.10;;;35.10;52.20;;;;;;5054631;28;20176;-66
2023/09/10 12:17:08;;;;;;;0.30;0.30;;;35.00;51.70;;;;;;5053817;28;20181;-66
2023/09/10 12:19:35;;;;;;;0.00;0.00;;;35.10;50.90;;;;;;5054668;28;20183;-66
2023/09/10 12:22:03;;;;;;;0.00;0.00;;;34.80;50.40;;;;;;5054567;28;20219;-65
2023/09/10 12:24:29;;;;;;;0.20;0.20;;;34.80;51.20;;;;;;5054638;28;20208;-66
2023/09/10 12:26:54;;;;;;;0.68;0.68;;;34.80;51.80;;;;;;5054105;28;20208;-67
2023/09/10 12:29:20;;;;;;;0.10;0.10;;;34.80;50.70;;;;;;5054490;28;20169;-67
2023/09/10 12:31:46;;;;;;;0.00;0.00;;;34.50;50.50;;;;;;5053691;28;20269;-67
2023/09/10 12:34:14;;;;;;;0.00;0.00;;;34.40;50.90;;;;;;5054339;28;20601;-66
2023/09/10 12:36:40;;;;;;;0.00;0.00;;;34.20;50.80;;;;;;5054428;28;20644;-66
2023/09/10 12:39:17;;;;;;;0.03;0.03;;;34.10;51.70;;;;;;5054120;28;20541;-66
2023/09/10 12:41:46;;;;;;;0.00;0.00;;;34.00;51.10;;;;;;5054131;28;20200;-66
2023/09/10 12:44:12;;;;;;;0.00;0.00;;;34.00;51.50;;;;;;5054230;28;20283;-66
2023/09/10 12:46:39;;;;;;;0.08;0.08;;;33.80;52.10;;;;;;5053952;28;20181;-66
2023/09/10 12:49:05;;;;;;;0.00;0.00;;;33.40;51.60;;;;;;5053554;28;20578;-66